Tabas, Iran
Current Conditions -  °F | °C
As of 6:00 AM on Monday 22 Dec 2014 (Local Time) from OIMB Reporting Station
Rain Showers Rain Showers  
Wind Chill: 36°   Ceiling: 10000
Heat Index: 39°   Visibility: 6mi
Dew Point: 36°   Wind: 5mph
Humidity: 87%   Direction: 290°WNW
Pressure: 29.97"   Gusts: NA
Location:  33.59°N, 56.92°E
Report Text: OIMB 220300Z 29004KT 9999 -SHRA FEW030CB SCT035 OVC100 04/02 Q1015
Loading
Personal Weather Stations






























Interactive Weather Map New forecast layout! Learn more

10-Day Weather Forecast

Advertisements
Track Severe Weather on mobile